createdAt,value
2022-12-20T00:00:52.290Z,101038.44
2022-12-20T00:03:20.423Z,101031.22
2022-12-20T00:05:47.824Z,101035.25
2022-12-20T00:08:14.913Z,101026.34
2022-12-20T00:10:43.942Z,101022.22
2022-12-20T00:13:11.797Z,101013.16
2022-12-20T00:15:38.416Z,101013.63
2022-12-20T00:18:04.962Z,101001.84
2022-12-20T00:20:31.399Z,101000.13
2022-12-20T00:22:57.677Z,101003.06
2022-12-20T00:25:24.225Z,101004.47
2022-12-20T00:27:51.043Z,100999.09
2022-12-20T00:30:17.831Z,101006.09
2022-12-20T00:32:44.776Z,100988.19
2022-12-20T00:35:11.705Z,100993.88
2022-12-20T00:37:38.179Z,100999.00
2022-12-20T00:40:06.181Z,100996.28
2022-12-20T00:42:33.144Z,100979.56
2022-12-20T00:44:59.734Z,100994.41
2022-12-20T00:47:26.065Z,100993.53
2022-12-20T00:49:52.355Z,100989.03
2022-12-20T00:52:18.652Z,100999.63
2022-12-20T00:54:44.979Z,100990.09
2022-12-20T00:57:11.268Z,100996.94
2022-12-20T00:59:37.638Z,101000.53
2022-12-20T01:02:04.220Z,101000.72
2022-12-20T01:04:30.722Z,100993.69
2022-12-20T01:06:57.084Z,100987.41
2022-12-20T01:09:23.400Z,100986.88
2022-12-20T01:11:49.690Z,100981.38
2022-12-20T01:14:16.821Z,101000.50
2022-12-20T01:16:47.423Z,100996.88
2022-12-20T01:19:16.348Z,100985.47
2022-12-20T01:21:46.043Z,100991.31
2022-12-20T01:24:17.008Z,100981.94
2022-12-20T01:26:43.957Z,100986.63
2022-12-20T01:29:10.766Z,100984.66
2022-12-20T01:31:37.425Z,100994.66
2022-12-20T01:34:03.751Z,100991.25
2022-12-20T01:36:32.952Z,101005.25
2022-12-20T01:39:03.842Z,100997.34
2022-12-20T01:41:32.042Z,100985.72
2022-12-20T01:44:01.473Z,100991.59
2022-12-20T01:46:30.411Z,100983.31
2022-12-20T01:49:06.511Z,100983.25
2022-12-20T01:51:36.880Z,100981.72
2022-12-20T01:54:26.239Z,100972.19
2022-12-20T01:56:58.531Z,100974.22
2022-12-20T01:59:27.146Z,100959.63
2022-12-20T02:01:54.534Z,100949.63
2022-12-20T02:04:20.984Z,100948.63
2022-12-20T02:06:47.279Z,100958.00
2022-12-20T02:09:13.562Z,100955.72
2022-12-20T02:12:07.580Z,100944.13
2022-12-20T02:14:51.120Z,100940.72
2022-12-20T02:17:42.358Z,100925.78
2022-12-20T02:20:35.011Z,100929.47
2022-12-20T02:23:39.059Z,100906.00
2022-12-20T02:26:08.322Z,100910.69
2022-12-20T02:28:54.702Z,100904.94
2022-12-20T02:31:27.499Z,100909.97
2022-12-20T02:33:57.701Z,100909.88
2022-12-20T02:36:25.351Z,100914.47
2022-12-20T02:38:52.093Z,100916.72
2022-12-20T02:41:24.857Z,100906.00
2022-12-20T02:44:14.909Z,100904.56
2022-12-20T02:46:42.361Z,100899.25
2022-12-20T02:49:15.363Z,100891.25
2022-12-20T02:51:44.634Z,100896.56
2022-12-20T02:54:11.600Z,100897.56
2022-12-20T02:56:51.702Z,100892.81
2022-12-20T02:59:41.539Z,100904.91
2022-12-20T03:02:08.499Z,100914.72
2022-12-20T03:04:39.131Z,100901.88
2022-12-20T03:07:11.516Z,100913.09
2022-12-20T03:09:40.213Z,100910.41
2022-12-20T03:12:07.895Z,100905.75
2022-12-20T03:14:34.238Z,100905.28
2022-12-20T03:17:00.658Z,100896.84
2022-12-20T03:19:27.122Z,100893.97
2022-12-20T03:21:53.422Z,100879.91
2022-12-20T03:24:19.992Z,100898.88
2022-12-20T03:26:46.314Z,100878.91
2022-12-20T03:29:12.685Z,100882.50
2022-12-20T03:31:39.308Z,100874.16
2022-12-20T03:34:05.804Z,100862.38
2022-12-20T03:36:32.375Z,100871.19
2022-12-20T03:38:59.013Z,100876.59
2022-12-20T03:41:26.748Z,100863.81
2022-12-20T03:43:53.173Z,100865.78
2022-12-20T03:46:19.578Z,100870.53
2022-12-20T03:48:45.903Z,100879.09
2022-12-20T03:51:12.293Z,100891.59
2022-12-20T03:53:38.616Z,100864.28
2022-12-20T03:56:05.202Z,100889.91
2022-12-20T03:58:31.463Z,100871.28
2022-12-20T04:00:58.533Z,100875.88
2022-12-20T04:03:24.979Z,100868.56
2022-12-20T04:05:51.346Z,100871.34
2022-12-20T04:08:17.620Z,100872.78
2022-12-20T04:11:02.682Z,100859.75
2022-12-20T04:13:28.925Z,100858.13
2022-12-20T04:16:00.042Z,100870.91
2022-12-20T04:18:27.122Z,100869.97
2022-12-20T04:20:54.002Z,100853.97
2022-12-20T04:23:20.342Z,100841.31
2022-12-20T04:25:46.647Z,100842.47
2022-12-20T04:28:12.973Z,100830.88
2022-12-20T04:30:39.368Z,100825.25
2022-12-20T04:33:05.656Z,100834.06
2022-12-20T04:35:32.833Z,100807.38
2022-12-20T04:37:59.133Z,100827.53
2022-12-20T04:40:25.516Z,100822.16
2022-12-20T04:42:51.801Z,100835.06
2022-12-20T04:45:18.149Z,100820.84
2022-12-20T04:47:44.554Z,100824.44
2022-12-20T04:50:11.003Z,100836.19
2022-12-20T04:52:55.912Z,100834.69
2022-12-20T04:55:22.402Z,100836.69
2022-12-20T04:57:48.955Z,100848.81
2022-12-20T05:00:15.661Z,100847.13
2022-12-20T05:02:42.143Z,100836.47
2022-12-20T05:05:08.807Z,100842.78
2022-12-20T05:07:35.140Z,100837.56
2022-12-20T05:10:01.411Z,100820.94
2022-12-20T05:12:27.724Z,100828.66
2022-12-20T05:14:53.988Z,100821.47
2022-12-20T05:17:20.304Z,100826.59
2022-12-20T05:19:46.765Z,100834.38
2022-12-20T05:22:31.758Z,100839.56
2022-12-20T05:25:16.610Z,100839.63
2022-12-20T05:27:42.920Z,100839.22
2022-12-20T05:30:09.731Z,100821.06
2022-12-20T05:32:36.064Z,100815.44
2022-12-20T05:35:02.465Z,100815.97
2022-12-20T05:37:28.748Z,100821.13
2022-12-20T05:39:55.084Z,100795.28
2022-12-20T05:42:21.391Z,100811.50
2022-12-20T05:44:47.709Z,100807.16
2022-12-20T05:47:14.124Z,100813.06
2022-12-20T05:49:40.488Z,100808.75
2022-12-20T05:52:07.655Z,100806.50
2022-12-20T05:54:33.962Z,100801.28
2022-12-20T05:57:00.206Z,100779.06
2022-12-20T05:59:26.540Z,100802.41
2022-12-20T06:01:52.893Z,100795.91
2022-12-20T06:04:19.368Z,100795.22
2022-12-20T06:06:45.792Z,100792.22
2022-12-20T06:09:12.108Z,100796.63
2022-12-20T06:11:38.415Z,100796.94
2022-12-20T06:14:04.790Z,100805.91
2022-12-20T06:16:31.363Z,100801.22
2022-12-20T06:18:57.733Z,100795.47
2022-12-20T06:21:24.276Z,100790.16
2022-12-20T06:23:50.586Z,100739.25
2022-12-20T06:26:17.074Z,100796.97
2022-12-20T06:28:43.452Z,100792.41
2022-12-20T06:31:11.475Z,100801.59
2022-12-20T06:33:37.901Z,100810.09
2022-12-20T06:36:04.707Z,100800.84
2022-12-20T06:38:31.038Z,100799.13
2022-12-20T06:40:57.319Z,100772.19
2022-12-20T06:43:23.586Z,100801.81
2022-12-20T06:45:50.109Z,100799.38
2022-12-20T06:48:16.663Z,100805.94
2022-12-20T06:50:43.005Z,100810.31
2022-12-20T06:53:09.383Z,100794.47
2022-12-20T06:55:35.691Z,100802.19
2022-12-20T06:58:03.694Z,100804.03
2022-12-20T07:00:30.168Z,100805.00
2022-12-20T07:02:56.760Z,100798.97
2022-12-20T07:05:23.167Z,100798.31
2022-12-20T07:07:49.733Z,100797.34
2022-12-20T07:10:16.367Z,100798.38
2022-12-20T07:12:47.802Z,100789.31
2022-12-20T07:15:15.245Z,100789.31
2022-12-20T07:17:41.701Z,100785.88
2022-12-20T07:20:13.175Z,100783.31
2022-12-20T07:22:40.661Z,100785.44
2022-12-20T07:25:07.175Z,100787.25
2022-12-20T07:27:33.493Z,100792.38
2022-12-20T07:30:00.232Z,100799.31
2022-12-20T07:32:26.528Z,100797.59
2022-12-20T07:34:53.505Z,100783.41
2022-12-20T07:37:19.779Z,100779.72
2022-12-20T07:39:46.080Z,100776.13
2022-12-20T07:42:12.450Z,100778.19
2022-12-20T07:44:38.785Z,100774.59
2022-12-20T07:47:05.206Z,100780.47
2022-12-20T07:49:31.657Z,100771.50
2022-12-20T07:51:59.855Z,100771.00
2022-12-20T07:54:29.943Z,100765.84
2022-12-20T07:57:00.583Z,100755.41
2022-12-20T07:59:33.731Z,100757.56
2022-12-20T08:02:05.008Z,100761.22
2022-12-20T08:04:33.712Z,100752.56
2022-12-20T08:07:01.296Z,100738.34
2022-12-20T08:09:31.279Z,100755.91
2022-12-20T08:11:58.032Z,100749.78
2022-12-20T08:14:24.565Z,100760.38
2022-12-20T08:16:50.882Z,100748.31
2022-12-20T08:19:17.183Z,100748.19
2022-12-20T08:21:43.528Z,100744.28
2022-12-20T08:24:09.907Z,100748.78
2022-12-20T08:26:40.859Z,100733.03
2022-12-20T08:29:08.588Z,100736.22
2022-12-20T08:31:49.674Z,100729.72
2022-12-20T08:34:16.718Z,100736.47
2022-12-20T08:36:43.608Z,100744.53
2022-12-20T08:39:11.350Z,100735.72
2022-12-20T08:41:37.820Z,100732.63
2022-12-20T08:44:05.210Z,100731.38
2022-12-20T08:46:31.613Z,100745.69
2022-12-20T08:48:58.182Z,100732.63
2022-12-20T08:51:24.655Z,100737.09
2022-12-20T08:53:52.224Z,100738.00
2022-12-20T08:56:18.616Z,100746.00
2022-12-20T08:58:46.645Z,100740.56
2022-12-20T09:01:16.719Z,100734.50
2022-12-20T09:03:44.459Z,100718.16
2022-12-20T09:06:16.614Z,100718.59
2022-12-20T09:08:43.122Z,100724.97
2022-12-20T09:11:15.386Z,100727.97
2022-12-20T09:13:44.457Z,100735.22
2022-12-20T09:16:13.015Z,100732.69
2022-12-20T09:18:39.754Z,100730.22
2022-12-20T09:21:08.496Z,100725.19
2022-12-20T09:23:36.084Z,100724.31
2022-12-20T09:26:16.759Z,100720.34
2022-12-20T09:28:44.391Z,100719.72
2022-12-20T09:31:13.112Z,100719.94
2022-12-20T09:33:39.985Z,100727.00
2022-12-20T09:36:07.307Z,100723.50
2022-12-20T09:38:33.841Z,100711.38
2022-12-20T09:41:04.980Z,100709.13
2022-12-20T09:43:33.232Z,100713.88
2022-12-20T09:46:02.149Z,100700.25
2022-12-20T09:48:38.556Z,100703.16
2022-12-20T09:51:17.623Z,100701.63
2022-12-20T09:54:08.645Z,100695.94
2022-12-20T09:56:44.934Z,100691.13
2022-12-20T09:59:13.711Z,100692.22
2022-12-20T10:01:44.749Z,100689.59
2022-12-20T10:04:23.619Z,100691.88
2022-12-20T10:07:14.584Z,100683.44
2022-12-20T10:10:16.477Z,100686.44
2022-12-20T10:13:04.722Z,100696.41
2022-12-20T10:15:41.111Z,100690.06
2022-12-20T10:18:25.738Z,100684.84
2022-12-20T10:21:16.182Z,100680.56
2022-12-20T10:23:42.426Z,100685.72
2022-12-20T10:26:10.784Z,100677.94
2022-12-20T10:28:40.900Z,100675.31
2022-12-20T10:31:13.241Z,100679.72
2022-12-20T10:33:41.013Z,100664.25
2022-12-20T10:36:23.339Z,100671.44
2022-12-20T10:38:52.351Z,100674.50
2022-12-20T10:41:23.808Z,100668.44
2022-12-20T10:44:01.109Z,100665.38
2022-12-20T10:46:58.036Z,100658.81
2022-12-20T10:49:36.835Z,100665.19
2022-12-20T10:52:09.196Z,100654.47
2022-12-20T10:54:38.067Z,100654.22
2022-12-20T10:57:29.167Z,100656.38
2022-12-20T11:00:02.767Z,100651.28
2022-12-20T11:02:40.261Z,100650.50
2022-12-20T11:05:11.152Z,100657.63
2022-12-20T11:08:24.807Z,100643.25
2022-12-20T11:10:37.758Z,100642.81
2022-12-20T11:13:04.595Z,100647.34
2022-12-20T11:15:35.889Z,100638.28
2022-12-20T11:18:13.570Z,100629.41
2022-12-20T11:20:58.516Z,100641.09
2022-12-20T11:23:49.356Z,100635.91
2022-12-20T11:26:54.133Z,100626.84
2022-12-20T11:29:51.901Z,100605.78
2022-12-20T11:32:41.785Z,100600.31
2022-12-20T11:35:20.824Z,100594.28
2022-12-20T11:38:09.454Z,100582.16
2022-12-20T11:40:47.888Z,100578.13
2022-12-20T11:43:54.202Z,100571.03
2022-12-20T11:46:58.814Z,100570.06
2022-12-20T11:49:46.768Z,100554.38
2022-12-20T11:52:28.687Z,100553.22
2022-12-20T11:55:04.508Z,100544.97
2022-12-20T11:58:09.020Z,100553.22
2022-12-20T12:00:28.853Z,100560.13
2022-12-20T12:03:14.861Z,100565.00
2022-12-20T12:05:47.616Z,100557.66
2022-12-20T12:08:27.567Z,100550.66
2022-12-20T12:11:39.820Z,100546.75
2022-12-20T12:14:03.200Z,100540.16
2022-12-20T12:16:37.207Z,100533.16
2022-12-20T12:19:05.253Z,100529.38
2022-12-20T12:21:38.905Z,100542.34
2022-12-20T12:24:17.504Z,100538.47
2022-12-20T12:26:43.822Z,100540.94
2022-12-20T12:29:13.365Z,100535.06
2022-12-20T12:31:55.236Z,100526.31
2022-12-20T12:34:59.266Z,100520.34
2022-12-20T12:37:44.434Z,100526.28
2022-12-20T12:40:43.877Z,100531.75
2022-12-20T12:43:37.956Z,100507.81
2022-12-20T12:46:14.418Z,100493.13
2022-12-20T12:49:02.307Z,100501.13
2022-12-20T12:51:34.809Z,100497.56
2022-12-20T12:54:17.431Z,100487.63
2022-12-20T12:56:51.225Z,100475.72
2022-12-20T12:59:32.820Z,100468.97
2022-12-20T13:02:02.370Z,100472.53
2022-12-20T13:04:49.835Z,100477.88
2022-12-20T13:07:35.071Z,100482.34
2022-12-20T13:10:29.520Z,100481.44
2022-12-20T13:13:01.178Z,100480.31
2022-12-20T13:15:27.525Z,100473.84
2022-12-20T13:17:56.893Z,100475.63
2022-12-20T13:20:25.727Z,100466.00
2022-12-20T13:23:11.569Z,100474.78
2022-12-20T13:25:49.332Z,100479.38
2022-12-20T13:28:16.383Z,100476.38
2022-12-20T13:30:43.956Z,100472.16
2022-12-20T13:33:37.934Z,100460.97
2022-12-20T13:36:10.372Z,100469.06
2022-12-20T13:38:51.710Z,100472.00
2022-12-20T13:41:34.202Z,100470.84
2022-12-20T13:44:10.583Z,100474.84
2022-12-20T13:47:00.176Z,100467.78
2022-12-20T13:49:34.616Z,100481.16
2022-12-20T13:52:17.230Z,100482.09
2022-12-20T13:54:49.894Z,100472.34
2022-12-20T13:57:20.870Z,100453.72
2022-12-20T13:59:49.661Z,100445.72
2022-12-20T14:02:22.756Z,100426.44
2022-12-20T14:05:00.205Z,100445.06
2022-12-20T14:07:29.483Z,100445.84
2022-12-20T14:09:59.391Z,100453.97
2022-12-20T14:12:32.890Z,100451.50
2022-12-20T14:15:02.806Z,100442.72
2022-12-20T14:17:32.192Z,100443.78
2022-12-20T14:20:15.698Z,100442.41
2022-12-20T14:23:06.744Z,100445.38
2022-12-20T14:25:44.172Z,100457.34
2022-12-20T14:28:28.412Z,100451.00
2022-12-20T14:30:59.337Z,100444.72
2022-12-20T14:33:30.261Z,100444.50
2022-12-20T14:35:57.143Z,100443.56
2022-12-20T14:38:30.705Z,100438.16
2022-12-20T14:40:57.504Z,100428.28
2022-12-20T14:43:33.883Z,100430.34
2022-12-20T14:46:22.421Z,100428.63
2022-12-20T14:48:48.932Z,100425.56
2022-12-20T14:51:21.864Z,100421.06
2022-12-20T14:53:51.035Z,100412.22
2022-12-20T14:56:25.001Z,100416.66
2022-12-20T14:59:13.118Z,100412.59
2022-12-20T15:01:43.848Z,100420.25
2022-12-20T15:04:33.018Z,100418.25
2022-12-20T15:07:03.334Z,100419.75
2022-12-20T15:09:29.605Z,100417.72
2022-12-20T15:11:57.608Z,100390.28
2022-12-20T15:14:23.855Z,100385.97
2022-12-20T15:16:50.289Z,100391.97
2022-12-20T15:19:16.673Z,100413.78
2022-12-20T15:21:45.048Z,100405.59
2022-12-20T15:24:16.569Z,100398.44
2022-12-20T15:26:42.955Z,100395.94
2022-12-20T15:29:17.316Z,100398.91
2022-12-20T15:31:44.733Z,100417.00
2022-12-20T15:34:20.166Z,100406.03
2022-12-20T15:36:47.078Z,100404.84
2022-12-20T15:39:14.455Z,100400.22
2022-12-20T15:41:47.079Z,100391.22
2022-12-20T15:44:19.149Z,100401.63
2022-12-20T15:46:45.855Z,100403.13
2022-12-20T15:49:23.311Z,100406.66
2022-12-20T15:51:51.529Z,100403.19
2022-12-20T15:54:24.217Z,100392.84
2022-12-20T15:56:51.213Z,100397.06
2022-12-20T15:59:57.781Z,100386.44
2022-12-20T16:02:04.130Z,100379.72
2022-12-20T16:04:30.549Z,100389.09
2022-12-20T16:06:56.965Z,100379.38
2022-12-20T16:09:25.710Z,100407.13
2022-12-20T16:11:52.346Z,100401.47
2022-12-20T16:14:23.571Z,100409.56
2022-12-20T16:16:50.233Z,100404.03
2022-12-20T16:19:17.267Z,100400.34
2022-12-20T16:21:49.282Z,100396.06
2022-12-20T16:24:20.094Z,100405.31
2022-12-20T16:26:48.740Z,100402.38
2022-12-20T16:29:15.932Z,100411.38
2022-12-20T16:31:42.817Z,100402.44
2022-12-20T16:34:15.035Z,100413.06
2022-12-20T16:36:41.784Z,100409.34
2022-12-20T16:39:10.093Z,100400.25
2022-12-20T16:41:38.630Z,100398.53
2022-12-20T16:44:05.119Z,100394.75
2022-12-20T16:46:32.314Z,100398.38
2022-12-20T16:49:00.704Z,100401.88
2022-12-20T16:51:34.843Z,100399.31
2022-12-20T16:54:20.776Z,100383.50
2022-12-20T16:56:50.906Z,100381.53
2022-12-20T16:59:19.792Z,100379.69
2022-12-20T17:01:47.576Z,100388.66
2022-12-20T17:04:16.123Z,100378.53
2022-12-20T17:06:43.081Z,100377.97
2022-12-20T17:09:10.397Z,100372.50
2022-12-20T17:11:37.337Z,100367.88
2022-12-20T17:14:10.330Z,100372.06
2022-12-20T17:16:39.084Z,100354.84
2022-12-20T17:19:05.508Z,100376.78
2022-12-20T17:24:26.391Z,100378.31
2022-12-20T17:26:52.721Z,100374.66
2022-12-20T17:29:20.397Z,100370.34
2022-12-20T17:31:47.757Z,100371.34
2022-12-20T17:34:20.058Z,100374.22
2022-12-20T17:36:48.104Z,100365.66
2022-12-20T17:39:14.835Z,100359.69
2022-12-20T17:41:44.854Z,100373.06
2022-12-20T17:44:24.289Z,100366.97
2022-12-20T17:46:50.909Z,100359.06
2022-12-20T17:49:17.332Z,100362.53
2022-12-20T17:51:43.845Z,100356.69
2022-12-20T17:54:24.624Z,100355.91
2022-12-20T17:56:51.339Z,100348.88
2022-12-20T17:59:18.387Z,100344.41
2022-12-20T18:01:46.467Z,100354.81
2022-12-20T18:04:15.437Z,100351.13
2022-12-20T18:06:44.683Z,100346.63
2022-12-20T18:09:19.566Z,100344.03
2022-12-20T18:11:46.635Z,100349.97
2022-12-20T18:14:13.671Z,100341.00
2022-12-20T18:16:40.322Z,100349.66
2022-12-20T18:19:08.416Z,100353.97
2022-12-20T18:21:34.926Z,100342.00
2022-12-20T18:24:01.345Z,100331.50
2022-12-20T18:26:32.525Z,100337.66
2022-12-20T18:29:01.359Z,100343.88
2022-12-20T18:31:30.541Z,100349.94
2022-12-20T18:33:58.608Z,100341.38
2022-12-20T18:36:36.176Z,100344.31
2022-12-20T18:39:05.826Z,100347.25
2022-12-20T18:41:32.617Z,100337.72
2022-12-20T18:44:04.491Z,100339.25
2022-12-20T18:46:31.016Z,100345.41
2022-12-20T18:49:00.141Z,100333.66
2022-12-20T18:51:32.913Z,100322.06
2022-12-20T18:53:59.800Z,100321.94
2022-12-20T18:56:32.432Z,100322.09
2022-12-20T18:59:04.771Z,100318.44
2022-12-20T19:01:37.042Z,100320.22
2022-12-20T19:04:05.828Z,100314.91
2022-12-20T19:06:33.222Z,100314.56
2022-12-20T19:09:05.363Z,100331.97
2022-12-20T19:11:31.895Z,100331.69
2022-12-20T19:13:58.195Z,100329.63
2022-12-20T19:16:32.515Z,100332.81
2022-12-20T19:19:00.932Z,100330.88
2022-12-20T19:21:32.748Z,100319.97
2022-12-20T19:24:02.119Z,100325.00
2022-12-20T19:26:29.573Z,100320.53
2022-12-20T19:28:57.009Z,100320.75
2022-12-20T19:31:28.409Z,100331.72
2022-12-20T19:33:57.796Z,100325.28
2022-12-20T19:36:26.512Z,100321.59
2022-12-20T19:38:58.009Z,100321.59
2022-12-20T19:41:26.972Z,100327.78
2022-12-20T19:43:53.351Z,100324.16
2022-12-20T19:46:28.472Z,100315.34
2022-12-20T19:48:57.111Z,100322.50
2022-12-20T19:51:23.919Z,100323.53
2022-12-20T19:53:51.559Z,100323.31
2022-12-20T19:56:20.750Z,100318.97
2022-12-20T19:58:47.736Z,100317.88
2022-12-20T20:01:15.276Z,100325.00
2022-12-20T20:03:41.610Z,100321.59
2022-12-20T20:06:08.620Z,100316.28
2022-12-20T20:08:35.619Z,100306.69
2022-12-20T20:11:09.082Z,100321.13
2022-12-20T20:13:36.225Z,100315.00
2022-12-20T20:16:03.859Z,100320.91
2022-12-20T20:18:33.546Z,100307.63
2022-12-20T20:20:59.936Z,100325.94
2022-12-20T20:23:26.655Z,100327.31
2022-12-20T20:25:59.970Z,100331.53
2022-12-20T20:28:31.899Z,100323.44
2022-12-20T20:31:00.413Z,100332.81
2022-12-20T20:33:26.860Z,100331.72
2022-12-20T20:35:55.282Z,100325.34
2022-12-20T20:38:22.203Z,100314.81
2022-12-20T20:40:48.742Z,100337.72
2022-12-20T20:43:15.126Z,100332.50
2022-12-20T20:45:41.426Z,100323.94
2022-12-20T20:48:07.740Z,100315.03
2022-12-20T20:50:34.128Z,100321.50
2022-12-20T20:53:00.391Z,100320.81
2022-12-20T20:55:26.696Z,100312.69
2022-12-20T20:57:52.960Z,100318.66
2022-12-20T21:00:19.431Z,100315.91
2022-12-20T21:02:46.091Z,100310.84
2022-12-20T21:07:59.152Z,100312.56
2022-12-20T21:10:25.573Z,100305.59
2022-12-20T21:12:52.046Z,100302.03
2022-12-20T21:15:23.567Z,100302.06
2022-12-20T21:17:50.385Z,100309.06
2022-12-20T21:20:20.633Z,100290.63
2022-12-20T21:22:50.303Z,100293.25
2022-12-20T21:25:17.149Z,100295.25
2022-12-20T21:27:43.465Z,100292.75
2022-12-20T21:30:10.340Z,100296.22
2022-12-20T21:32:36.600Z,100288.41
2022-12-20T21:35:03.130Z,100287.56
2022-12-20T21:37:33.432Z,100277.06
2022-12-20T21:40:00.167Z,100289.81
2022-12-20T21:42:26.633Z,100277.44
2022-12-20T21:44:52.956Z,100278.28
2022-12-20T21:47:19.979Z,100271.41
2022-12-20T21:49:46.306Z,100276.75
2022-12-20T21:52:12.633Z,100268.88
2022-12-20T21:54:38.942Z,100267.13
2022-12-20T21:57:05.259Z,100261.78
2022-12-20T21:59:31.625Z,100267.81
2022-12-20T22:01:58.204Z,100260.31
2022-12-20T22:04:25.580Z,100245.22
2022-12-20T22:06:51.862Z,100247.34
2022-12-20T22:09:18.237Z,100254.50
2022-12-20T22:11:47.876Z,100258.78
2022-12-20T22:14:15.027Z,100242.81
2022-12-20T22:16:42.203Z,100253.13
2022-12-20T22:19:12.642Z,100253.03
2022-12-20T22:21:38.913Z,100258.38
2022-12-20T22:24:05.494Z,100252.94
2022-12-20T22:26:33.228Z,100254.66
2022-12-20T22:29:03.190Z,100245.56
2022-12-20T22:31:30.401Z,100253.81
2022-12-20T22:33:57.943Z,100250.41
2022-12-20T22:36:25.378Z,100252.19
2022-12-20T22:38:53.384Z,100254.03
2022-12-20T22:41:25.032Z,100239.75
2022-12-20T22:43:51.376Z,100258.38
2022-12-20T22:46:18.316Z,100253.97
2022-12-20T22:48:45.221Z,100255.84
2022-12-20T22:51:21.621Z,100244.56
2022-12-20T22:53:49.317Z,100244.03
2022-12-20T22:56:18.633Z,100241.28
2022-12-20T22:58:45.509Z,100248.09
2022-12-20T23:01:14.258Z,100252.72
2022-12-20T23:03:40.875Z,100243.19
2022-12-20T23:06:10.441Z,100247.34
2022-12-20T23:08:37.566Z,100229.75
2022-12-20T23:11:28.060Z,100238.94
2022-12-20T23:14:12.780Z,100236.38
2022-12-20T23:16:39.148Z,100236.41
2022-12-20T23:19:05.562Z,100218.72
2022-12-20T23:21:50.531Z,100233.09
2022-12-20T23:24:16.872Z,100233.00
2022-12-20T23:26:43.284Z,100229.53
2022-12-20T23:29:10.252Z,100227.00
2022-12-20T23:31:36.948Z,100235.00
2022-12-20T23:34:04.136Z,100219.16
2022-12-20T23:36:33.097Z,100227.28
2022-12-20T23:38:59.693Z,100225.53
2022-12-20T23:41:26.036Z,100224.69
2022-12-20T23:43:52.369Z,100221.44
2022-12-20T23:46:19.936Z,100225.81
2022-12-20T23:48:46.298Z,100222.88
2022-12-20T23:51:12.923Z,100219.31
2022-12-20T23:53:39.369Z,100213.91
2022-12-20T23:56:14.858Z,100209.47
2022-12-20T23:58:42.667Z,100209.50
